createdAt,value
2023-03-11T00:00:46.761Z,97304.94
2023-03-11T00:01:48.494Z,97312.22
2023-03-11T00:02:51.025Z,97323.84
2023-03-11T00:03:52.221Z,97316.50
2023-03-11T00:04:53.493Z,97324.84
2023-03-11T00:05:55.722Z,97312.22
2023-03-11T00:06:56.987Z,97319.59
2023-03-11T00:07:58.240Z,97323.84
2023-03-11T00:08:59.467Z,97319.09
2023-03-11T00:10:00.664Z,97317.34
2023-03-11T00:11:01.898Z,97326.03
2023-03-11T00:12:03.580Z,97332.06
2023-03-11T00:13:05.729Z,97328.84
2023-03-11T00:14:06.986Z,97331.22
2023-03-11T00:15:08.460Z,97328.84
2023-03-11T00:16:09.973Z,97342.31
2023-03-11T00:17:11.195Z,97339.69
2023-03-11T00:18:12.772Z,97353.34
2023-03-11T00:19:14.155Z,97349.69
2023-03-11T00:20:20.558Z,97354.13
2023-03-11T00:21:21.867Z,97353.63
2023-03-11T00:22:23.210Z,97361.00
2023-03-11T00:23:25.451Z,97364.16
2023-03-11T00:24:26.770Z,97370.69
2023-03-11T00:25:29.431Z,97362.84
2023-03-11T00:26:30.672Z,97359.16
2023-03-11T00:27:31.932Z,97364.94
2023-03-11T00:28:35.724Z,97363.16
2023-03-11T00:29:36.990Z,97352.97
2023-03-11T00:30:38.994Z,97366.56
2023-03-11T00:31:40.279Z,97354.53
2023-03-11T00:32:42.777Z,97351.91
2023-03-11T00:33:44.179Z,97362.97
2023-03-11T00:34:47.289Z,97356.44
2023-03-11T00:35:49.539Z,97358.56
2023-03-11T00:36:50.887Z,97360.72
2023-03-11T00:37:53.513Z,97368.09
2023-03-11T00:38:54.879Z,97368.16
2023-03-11T00:39:56.123Z,97363.09
2023-03-11T00:40:57.353Z,97361.31
2023-03-11T00:41:58.536Z,97363.56
2023-03-11T00:42:59.947Z,97375.09
2023-03-11T00:44:01.264Z,97373.59
2023-03-11T00:45:04.352Z,97378.28
2023-03-11T00:46:05.628Z,97376.50
2023-03-11T00:47:06.998Z,97373.59
2023-03-11T00:48:08.495Z,97375.16
2023-03-11T00:49:10.026Z,97372.03
2023-03-11T00:50:14.964Z,97373.88
2023-03-11T00:51:16.197Z,97376.44
2023-03-11T00:52:17.428Z,97378.75
2023-03-11T00:53:18.680Z,97376.44
2023-03-11T00:54:19.962Z,97374.38
2023-03-11T00:55:26.672Z,97380.66
2023-03-11T00:56:27.997Z,97383.06
2023-03-11T00:57:29.255Z,97386.47
2023-03-11T00:58:30.558Z,97367.44
2023-03-11T00:59:31.916Z,97382.06
2023-03-11T01:00:34.197Z,97373.44
2023-03-11T01:01:37.065Z,97375.00
2023-03-11T01:02:38.620Z,97385.94
2023-03-11T01:03:40.094Z,97386.19
2023-03-11T01:04:41.440Z,97372.59
2023-03-11T01:05:42.759Z,97382.31
2023-03-11T01:06:45.505Z,97378.63
2023-03-11T01:07:47.404Z,97386.19
2023-03-11T01:08:48.713Z,97385.69
2023-03-11T01:09:51.065Z,97365.00
2023-03-11T01:10:52.930Z,97373.09
2023-03-11T01:11:56.021Z,97369.19
2023-03-11T01:12:57.408Z,97372.31
2023-03-11T01:13:58.634Z,97375.16
2023-03-11T01:15:00.964Z,97366.78
2023-03-11T01:16:03.451Z,97370.72
2023-03-11T01:17:04.999Z,97378.03
2023-03-11T01:18:06.730Z,97381.44
2023-03-11T01:19:08.532Z,97386.47
2023-03-11T01:20:10.289Z,97390.13
2023-03-11T01:21:11.627Z,97392.19
2023-03-11T01:22:13.679Z,97382.06
2023-03-11T01:23:15.755Z,97390.97
2023-03-11T01:24:17.030Z,97386.72
2023-03-11T01:25:19.390Z,97385.13
2023-03-11T01:26:20.605Z,97389.34
2023-03-11T01:27:21.922Z,97387.56
2023-03-11T01:28:23.212Z,97393.06
2023-03-11T01:29:25.579Z,97387.06
2023-03-11T01:30:27.630Z,97397.31
2023-03-11T01:31:28.911Z,97397.53
2023-03-11T01:32:30.784Z,97387.91
2023-03-11T01:33:32.125Z,97398.88
2023-03-11T01:34:33.924Z,97414.59
2023-03-11T01:35:35.186Z,97404.13
2023-03-11T01:36:36.496Z,97386.06
2023-03-11T01:37:37.749Z,97399.16
2023-03-11T01:38:38.965Z,97414.59
2023-03-11T01:39:40.249Z,97427.44
2023-03-11T01:40:43.770Z,97414.41
2023-03-11T01:41:47.149Z,97418.09
2023-03-11T01:42:48.432Z,97437.44
2023-03-11T01:43:51.360Z,97436.16
2023-03-11T01:45:04.817Z,97406.56
2023-03-11T01:46:12.232Z,97408.44
2023-03-11T01:47:13.566Z,97425.16
2023-03-11T01:48:14.962Z,97409.72
2023-03-11T01:49:16.202Z,97402.94
2023-03-11T01:50:17.461Z,97423.38
2023-03-11T01:51:23.662Z,97410.53
2023-03-11T01:52:25.172Z,97401.63
2023-03-11T01:53:27.126Z,97401.13
2023-03-11T01:54:31.221Z,97415.28
2023-03-11T01:55:32.913Z,97394.59
2023-03-11T01:56:35.090Z,97388.59
2023-03-11T01:57:38.141Z,97399.59
2023-03-11T01:58:41.504Z,97398.53
2023-03-11T01:59:52.957Z,97401.91
2023-03-11T02:00:55.429Z,97405.31
2023-03-11T02:02:01.960Z,97396.69
2023-03-11T02:03:06.965Z,97399.06
2023-03-11T02:04:08.467Z,97403.03
2023-03-11T02:05:09.836Z,97412.19
2023-03-11T02:06:13.556Z,97410.91
2023-03-11T02:07:15.145Z,97416.94
2023-03-11T02:08:16.721Z,97426.88
2023-03-11T02:09:18.056Z,97411.69
2023-03-11T02:10:19.796Z,97411.16
2023-03-11T02:11:23.341Z,97416.09
2023-03-11T02:12:25.196Z,97413.75
2023-03-11T02:13:26.481Z,97422.69
2023-03-11T02:14:29.225Z,97422.69
2023-03-11T02:15:30.452Z,97425.88
2023-03-11T02:16:32.441Z,97427.72
2023-03-11T02:17:34.819Z,97426.47
2023-03-11T02:18:37.107Z,97428.00
2023-03-11T02:19:38.405Z,97439.53
2023-03-11T02:20:46.889Z,97440.31
2023-03-11T02:21:49.064Z,97428.28
2023-03-11T02:22:50.525Z,97421.19
2023-03-11T02:23:52.257Z,97436.34
2023-03-11T02:25:05.698Z,97429.53
2023-03-11T02:26:10.992Z,97433.78
2023-03-11T02:27:13.802Z,97436.88
2023-03-11T02:28:16.172Z,97435.31
2023-03-11T02:29:18.505Z,97427.78
2023-03-11T02:30:21.893Z,97421.56
2023-03-11T02:31:23.807Z,97411.38
2023-03-11T02:32:25.208Z,97403.31
2023-03-11T02:33:28.873Z,97412.50
2023-03-11T02:34:31.957Z,97428.22
2023-03-11T02:35:34.341Z,97425.91
2023-03-11T02:36:37.618Z,97430.38
2023-03-11T02:37:44.224Z,97424.94
2023-03-11T02:38:45.500Z,97432.44
2023-03-11T02:39:48.999Z,97430.38
2023-03-11T02:40:54.809Z,97427.56
2023-03-11T02:41:58.481Z,97425.22
2023-03-11T02:43:01.498Z,97441.13
2023-03-11T02:44:05.016Z,97437.50
2023-03-11T02:45:09.114Z,97439.66
2023-03-11T02:46:11.428Z,97437.06
2023-03-11T02:47:12.946Z,97438.38
2023-03-11T02:48:14.274Z,97422.19
2023-03-11T02:49:15.976Z,97430.56
2023-03-11T02:50:18.596Z,97432.66
2023-03-11T02:51:20.261Z,97441.28
2023-03-11T02:52:25.025Z,97435.31
2023-03-11T02:53:28.562Z,97439.50
2023-03-11T02:54:30.196Z,97443.97
2023-03-11T02:55:32.318Z,97443.19
2023-03-11T02:56:34.579Z,97451.84
2023-03-11T02:57:35.881Z,97454.44
2023-03-11T02:58:37.505Z,97447.63
2023-03-11T02:59:38.806Z,97446.84
2023-03-11T03:00:40.147Z,97452.84
2023-03-11T03:01:42.491Z,97456.53
2023-03-11T03:02:44.546Z,97455.28
2023-03-11T03:03:45.942Z,97449.78
2023-03-11T03:04:47.560Z,97453.69
2023-03-11T03:05:49.625Z,97446.91
2023-03-11T03:06:51.113Z,97453.47
2023-03-11T03:07:52.376Z,97455.56
2023-03-11T03:08:53.737Z,97451.91
2023-03-11T03:09:55.138Z,97450.34
2023-03-11T03:10:56.428Z,97462.38
2023-03-11T03:11:58.322Z,97450.91
2023-03-11T03:12:59.695Z,97456.38
2023-03-11T03:14:00.990Z,97454.31
2023-03-11T03:15:02.232Z,97465.00
2023-03-11T03:16:03.934Z,97468.16
2023-03-11T03:17:06.660Z,97462.16
2023-03-11T03:18:07.978Z,97472.34
2023-03-11T03:19:09.390Z,97472.34
2023-03-11T03:20:10.993Z,97480.16
2023-03-11T03:21:13.984Z,97473.63
2023-03-11T03:22:15.390Z,97478.63
2023-03-11T03:23:16.763Z,97483.03
2023-03-11T03:24:18.008Z,97480.44
2023-03-11T03:25:19.250Z,97473.66
2023-03-11T03:26:21.453Z,97474.69
2023-03-11T03:27:24.328Z,97475.50
2023-03-11T03:28:26.561Z,97470.78
2023-03-11T03:29:28.343Z,97473.41
2023-03-11T03:30:29.747Z,97468.97
2023-03-11T03:31:31.338Z,97465.84
2023-03-11T03:32:33.793Z,97461.16
2023-03-11T03:33:36.431Z,97468.19
2023-03-11T03:34:39.708Z,97468.72
2023-03-11T03:35:42.813Z,97467.66
2023-03-11T03:36:49.842Z,97468.72
2023-03-11T03:37:52.334Z,97473.66
2023-03-11T03:38:55.760Z,97480.19
2023-03-11T03:39:57.300Z,97473.94
2023-03-11T03:40:58.584Z,97483.59
2023-03-11T03:42:00.216Z,97479.66
2023-03-11T03:43:03.365Z,97474.44
2023-03-11T03:44:06.009Z,97479.16
2023-03-11T03:45:09.554Z,97478.38
2023-03-11T03:46:10.908Z,97475.78
2023-03-11T03:47:16.236Z,97476.28
2023-03-11T03:48:17.644Z,97483.31
2023-03-11T03:49:19.928Z,97481.25
2023-03-11T03:50:21.565Z,97487.75
2023-03-11T03:51:24.584Z,97488.00
2023-03-11T03:52:38.505Z,97497.41
2023-03-11T03:53:40.360Z,97498.97
2023-03-11T03:54:41.763Z,97495.56
2023-03-11T03:55:43.134Z,97491.41
2023-03-11T03:56:44.998Z,97496.09
2023-03-11T03:57:46.892Z,97500.28
2023-03-11T03:58:48.898Z,97500.78
2023-03-11T03:59:50.228Z,97505.75
2023-03-11T04:00:55.110Z,97496.09
2023-03-11T04:01:56.479Z,97497.41
2023-03-11T04:02:58.809Z,97500.00
2023-03-11T04:04:07.925Z,97504.72
2023-03-11T04:05:09.731Z,97504.19
2023-03-11T04:06:14.786Z,97513.84
2023-03-11T04:07:16.126Z,97502.09
2023-03-11T04:08:18.024Z,97502.63
2023-03-11T04:09:19.814Z,97514.13
2023-03-11T04:10:21.148Z,97514.63
2023-03-11T04:11:22.840Z,97511.50
2023-03-11T04:12:24.257Z,97516.19
2023-03-11T04:13:25.674Z,97516.44
2023-03-11T04:14:26.985Z,97524.78
2023-03-11T04:15:32.394Z,97524.28
2023-03-11T04:16:33.742Z,97529.22
2023-03-11T04:17:39.654Z,97534.44
2023-03-11T04:18:40.934Z,97529.78
2023-03-11T04:19:42.370Z,97529.78
2023-03-11T04:20:44.383Z,97531.84
2023-03-11T04:21:45.675Z,97528.44
2023-03-11T04:22:47.303Z,97528.44
2023-03-11T04:23:48.615Z,97519.56
2023-03-11T04:24:51.752Z,97521.13
2023-03-11T04:25:53.079Z,97524.53
2023-03-11T04:26:54.440Z,97519.31
2023-03-11T04:27:56.118Z,97526.63
2023-03-11T04:28:57.417Z,97519.06
2023-03-11T04:30:00.417Z,97519.56
2023-03-11T04:31:01.970Z,97519.31
2023-03-11T04:32:05.410Z,97521.41
2023-03-11T04:33:07.556Z,97523.50
2023-03-11T04:34:08.897Z,97526.09
2023-03-11T04:35:11.828Z,97521.41
2023-03-11T04:36:13.846Z,97518.53
2023-03-11T04:37:15.774Z,97524.28
2023-03-11T04:38:17.198Z,97525.56
2023-03-11T04:39:18.470Z,97526.59
2023-03-11T04:40:21.083Z,97530.00
2023-03-11T04:41:22.680Z,97530.50
2023-03-11T04:42:23.956Z,97530.78
2023-03-11T04:43:25.254Z,97530.25
2023-03-11T04:44:26.570Z,97533.13
2023-03-11T04:45:27.862Z,97527.13
2023-03-11T04:46:31.610Z,97530.25
2023-03-11T04:47:34.906Z,97529.22
2023-03-11T04:48:37.913Z,97530.25
2023-03-11T04:49:39.333Z,97529.22
2023-03-11T04:50:40.682Z,97527.91
2023-03-11T04:51:42.473Z,97532.34
2023-03-11T04:52:44.606Z,97522.97
2023-03-11T04:53:45.979Z,97528.44
2023-03-11T04:54:47.482Z,97528.97
2023-03-11T04:55:48.726Z,97521.41
2023-03-11T04:56:50.055Z,97523.22
2023-03-11T04:57:51.384Z,97527.91
2023-03-11T04:58:52.934Z,97527.41
2023-03-11T04:59:55.400Z,97525.34
2023-03-11T05:00:56.729Z,97531.56
2023-03-11T05:01:58.934Z,97531.06
2023-03-11T05:03:00.307Z,97531.84
2023-03-11T05:04:01.678Z,97531.31
2023-03-11T05:05:03.006Z,97530.28
2023-03-11T05:06:04.617Z,97530.53
2023-03-11T05:07:05.902Z,97531.06
2023-03-11T05:08:07.157Z,97532.34
2023-03-11T05:09:09.148Z,97536.28
2023-03-11T05:10:13.286Z,97534.94
2023-03-11T05:11:14.513Z,97536.78
2023-03-11T05:12:17.837Z,97534.44
2023-03-11T05:13:23.417Z,97534.94
2023-03-11T05:14:27.440Z,97540.44
2023-03-11T05:15:30.343Z,97540.44
2023-03-11T05:16:33.730Z,97532.88
2023-03-11T05:17:35.245Z,97543.03
2023-03-11T05:18:36.713Z,97547.97
2023-03-11T05:19:38.060Z,97541.72
2023-03-11T05:20:47.786Z,97554.75
2023-03-11T05:21:50.118Z,97545.91
2023-03-11T05:22:51.483Z,97552.69
2023-03-11T05:23:53.254Z,97547.19
2023-03-11T05:24:54.566Z,97549.81
2023-03-11T05:25:56.314Z,97547.19
2023-03-11T05:26:57.935Z,97557.88
2023-03-11T05:27:59.550Z,97556.34
2023-03-11T05:29:00.827Z,97545.63
2023-03-11T05:30:02.189Z,97549.78
2023-03-11T05:31:09.833Z,97548.22
2023-03-11T05:32:12.806Z,97548.72
2023-03-11T05:33:15.079Z,97544.56
2023-03-11T05:34:16.691Z,97549.75
2023-03-11T05:35:18.081Z,97551.59
2023-03-11T05:36:19.374Z,97554.47
2023-03-11T05:37:20.824Z,97557.88
2023-03-11T05:38:23.488Z,97554.22
2023-03-11T05:39:24.889Z,97559.94
2023-03-11T05:40:26.214Z,97560.72
2023-03-11T05:41:27.419Z,97555.00
2023-03-11T05:42:28.756Z,97550.56
2023-03-11T05:43:31.419Z,97552.66
2023-03-11T05:44:34.102Z,97553.44
2023-03-11T05:45:36.064Z,97560.69
2023-03-11T05:46:37.426Z,97562.28
2023-03-11T05:47:40.591Z,97553.13
2023-03-11T05:48:42.941Z,97559.66
2023-03-11T05:49:46.541Z,97563.56
2023-03-11T05:50:47.899Z,97557.59
2023-03-11T05:51:49.874Z,97557.09
2023-03-11T05:52:51.227Z,97558.63
2023-03-11T05:53:53.826Z,97557.56
2023-03-11T05:55:03.437Z,97553.63
2023-03-11T05:56:05.993Z,97566.66
2023-03-11T05:57:07.239Z,97564.06
2023-03-11T05:58:09.062Z,97572.69
2023-03-11T05:59:11.488Z,97563.81
2023-03-11T06:00:13.575Z,97569.53
2023-03-11T06:01:16.384Z,97576.56
2023-03-11T06:02:18.025Z,97579.47
2023-03-11T06:03:19.292Z,97578.91
2023-03-11T06:04:21.164Z,97576.31
2023-03-11T06:05:23.003Z,97577.34
2023-03-11T06:06:25.653Z,97573.97
2023-03-11T06:07:27.188Z,97575.53
2023-03-11T06:08:28.452Z,97585.72
2023-03-11T06:09:29.724Z,97570.09
2023-03-11T06:10:31.083Z,97587.50
2023-03-11T06:11:32.599Z,97584.13
2023-03-11T06:12:34.773Z,97579.47
2023-03-11T06:13:45.740Z,97586.25
2023-03-11T06:14:47.920Z,97585.75
2023-03-11T06:15:49.496Z,97589.63
2023-03-11T06:16:51.220Z,97590.19
2023-03-11T06:17:54.615Z,97589.44
2023-03-11T06:18:56.424Z,97587.06
2023-03-11T06:19:57.728Z,97582.66
2023-03-11T06:21:00.238Z,97590.22
2023-03-11T06:22:02.179Z,97585.03
2023-03-11T06:23:04.464Z,97591.53
2023-03-11T06:24:06.955Z,97587.09
2023-03-11T06:25:08.475Z,97587.88
2023-03-11T06:26:13.972Z,97591.81
2023-03-11T06:27:18.185Z,97591.03
2023-03-11T06:28:19.709Z,97595.47
2023-03-11T06:29:21.031Z,97592.09
2023-03-11T06:30:23.569Z,97584.25
2023-03-11T06:31:40.406Z,97591.81
2023-03-11T06:32:45.287Z,97590.78
2023-03-11T06:33:47.531Z,97585.56
2023-03-11T06:34:51.762Z,97583.50
2023-03-11T06:35:57.599Z,97589.50
2023-03-11T06:36:58.943Z,97590.53
2023-03-11T06:38:00.237Z,97597.84
2023-03-11T06:39:01.590Z,97599.94
2023-03-11T06:40:04.526Z,97602.03
2023-03-11T06:41:06.426Z,97607.25
2023-03-11T06:42:09.906Z,97609.09
2023-03-11T06:43:11.241Z,97611.16
2023-03-11T06:44:14.996Z,97612.47
2023-03-11T06:45:18.891Z,97611.69
2023-03-11T06:46:22.833Z,97619.53
2023-03-11T06:47:25.854Z,97622.91
2023-03-11T06:48:27.444Z,97620.31
2023-03-11T06:49:29.040Z,97623.97
2023-03-11T06:50:30.361Z,97625.25
2023-03-11T06:51:34.879Z,97618.72
2023-03-11T06:52:37.030Z,97631.25
2023-03-11T06:53:41.061Z,97631.00
2023-03-11T06:54:42.987Z,97626.03
2023-03-11T06:55:44.229Z,97637.50
2023-03-11T06:56:45.533Z,97626.78
2023-03-11T06:57:47.533Z,97641.13
2023-03-11T06:58:49.124Z,97636.69
2023-03-11T06:59:51.479Z,97641.41
2023-03-11T07:00:53.460Z,97640.09
2023-03-11T07:01:55.257Z,97642.19
2023-03-11T07:02:56.606Z,97640.09
2023-03-11T07:03:59.024Z,97636.69
2023-03-11T07:05:00.996Z,97642.16
2023-03-11T07:06:03.574Z,97642.16
2023-03-11T07:07:06.222Z,97650.56
2023-03-11T07:08:07.503Z,97641.38
2023-03-11T07:09:09.046Z,97645.81
2023-03-11T07:10:14.636Z,97641.91
2023-03-11T07:11:17.724Z,97641.91
2023-03-11T07:12:19.104Z,97650.50
2023-03-11T07:13:20.328Z,97648.69
2023-03-11T07:14:21.686Z,97647.09
2023-03-11T07:15:26.965Z,97648.94
2023-03-11T07:16:29.579Z,97653.88
2023-03-11T07:17:37.136Z,97651.53
2023-03-11T07:18:38.553Z,97655.72
2023-03-11T07:19:40.186Z,97659.09
2023-03-11T07:20:41.404Z,97653.59
2023-03-11T07:21:42.635Z,97664.06
2023-03-11T07:22:43.877Z,97666.69
2023-03-11T07:23:45.607Z,97665.63
2023-03-11T07:24:47.685Z,97666.41
2023-03-11T07:25:49.223Z,97669.56
2023-03-11T07:26:50.546Z,97664.84
2023-03-11T07:27:51.787Z,97666.16
2023-03-11T07:28:56.700Z,97662.78
2023-03-11T07:29:57.946Z,97667.47
2023-03-11T07:30:59.193Z,97674.03
2023-03-11T07:32:00.489Z,97661.22
2023-03-11T07:33:01.766Z,97669.59
2023-03-11T07:34:05.543Z,97665.13
2023-03-11T07:35:07.159Z,97672.19
2023-03-11T07:36:10.172Z,97675.31
2023-03-11T07:37:11.423Z,97676.88
2023-03-11T07:38:12.661Z,97675.31
2023-03-11T07:39:15.352Z,97678.97
2023-03-11T07:40:16.639Z,97684.47
2023-03-11T07:41:18.410Z,97685.25
2023-03-11T07:42:19.704Z,97691.25
2023-03-11T07:43:21.467Z,97693.34
2023-03-11T07:44:22.663Z,97685.72
2023-03-11T07:45:24.294Z,97687.53
2023-03-11T07:46:26.358Z,97683.63
2023-03-11T07:47:27.626Z,97690.69
2023-03-11T07:48:28.969Z,97686.50
2023-03-11T07:49:30.203Z,97687.53
2023-03-11T07:50:31.497Z,97687.28
2023-03-11T07:51:34.168Z,97690.16
2023-03-11T07:52:35.439Z,97692.78
2023-03-11T07:53:36.917Z,97692.00
2023-03-11T07:54:38.198Z,97701.97
2023-03-11T07:55:39.442Z,97689.66
2023-03-11T07:56:40.729Z,97693.34
2023-03-11T07:57:42.080Z,97705.63
2023-03-11T07:58:45.589Z,97700.91
2023-03-11T07:59:47.080Z,97693.84
2023-03-11T08:00:48.382Z,97701.16
2023-03-11T08:01:49.689Z,97702.22
2023-03-11T08:02:51.608Z,97696.44
2023-03-11T08:03:54.043Z,97706.41
2023-03-11T08:04:55.516Z,97708.75
2023-03-11T08:05:56.797Z,97697.78
2023-03-11T08:06:58.553Z,97704.53
2023-03-11T08:07:59.766Z,97702.44
2023-03-11T08:09:02.105Z,97706.09
2023-03-11T08:10:03.524Z,97704.53
2023-03-11T08:11:04.901Z,97706.09
2023-03-11T08:12:06.337Z,97706.88
2023-03-11T08:13:07.820Z,97709.75
2023-03-11T08:14:09.111Z,97705.31
2023-03-11T08:15:10.609Z,97711.56
2023-03-11T08:16:13.835Z,97712.88
2023-03-11T08:17:15.156Z,97717.06
2023-03-11T08:18:17.060Z,97713.91
2023-03-11T08:19:18.450Z,97719.66
2023-03-11T08:20:19.656Z,97722.78
2023-03-11T08:21:22.370Z,97719.13
2023-03-11T08:22:23.679Z,97717.06
2023-03-11T08:23:24.908Z,97720.66
2023-03-11T08:24:26.125Z,97713.34
2023-03-11T08:25:27.348Z,97722.50
2023-03-11T08:26:28.705Z,97718.63
2023-03-11T08:27:29.998Z,97724.38
2023-03-11T08:28:31.372Z,97719.16
2023-03-11T08:29:32.608Z,97725.16
2023-03-11T08:30:34.177Z,97723.06
2023-03-11T08:31:35.494Z,97727.78
2023-03-11T08:32:36.800Z,97716.81
2023-03-11T08:33:38.037Z,97724.91
2023-03-11T08:34:39.429Z,97739.00
2023-03-11T08:35:40.845Z,97740.06
2023-03-11T08:36:42.360Z,97728.53
2023-03-11T08:37:43.608Z,97737.69
2023-03-11T08:38:48.068Z,97736.38
2023-03-11T08:39:49.410Z,97740.03
2023-03-11T08:40:50.627Z,97741.09
2023-03-11T08:41:51.839Z,97736.66
2023-03-11T08:42:54.922Z,97748.97
2023-03-11T08:43:56.260Z,97744.25
2023-03-11T08:44:57.560Z,97743.75
2023-03-11T08:46:02.929Z,97744.00
2023-03-11T08:47:04.296Z,97736.91
2023-03-11T08:48:05.624Z,97743.69
2023-03-11T08:49:06.961Z,97742.13
2023-03-11T08:50:11.519Z,97731.66
2023-03-11T08:51:13.120Z,97741.03
2023-03-11T08:52:14.337Z,97744.91
2023-03-11T08:53:15.635Z,97741.50
2023-03-11T08:54:16.906Z,97738.34
2023-03-11T08:55:18.603Z,97746.72
2023-03-11T08:56:20.332Z,97754.28
2023-03-11T08:57:21.529Z,97754.81
2023-03-11T08:58:22.782Z,97757.41
2023-03-11T08:59:24.246Z,97756.88
2023-03-11T09:00:25.546Z,97761.03
2023-03-11T09:01:26.784Z,97748.72
2023-03-11T09:02:28.093Z,97760.00
2023-03-11T09:03:33.210Z,97753.44
2023-03-11T09:04:34.433Z,97741.44
2023-03-11T09:05:36.082Z,97752.38
2023-03-11T09:06:37.361Z,97756.31
2023-03-11T09:07:38.649Z,97757.59
2023-03-11T09:08:39.939Z,97754.44
2023-03-11T09:09:41.202Z,97756.28
2023-03-11T09:10:42.416Z,97757.09
2023-03-11T09:11:43.637Z,97761.28
2023-03-11T09:12:44.911Z,97754.97
2023-03-11T09:13:46.120Z,97750.53
2023-03-11T09:14:47.501Z,97748.94
2023-03-11T09:15:49.591Z,97759.38
2023-03-11T09:16:50.833Z,97760.41
2023-03-11T09:17:52.066Z,97759.34
2023-03-11T09:18:53.287Z,97760.38
2023-03-11T09:19:54.473Z,97752.50
2023-03-11T09:20:55.805Z,97754.81
2023-03-11T09:21:59.783Z,97759.03
2023-03-11T09:23:01.057Z,97755.88
2023-03-11T09:24:02.630Z,97748.81
2023-03-11T09:25:03.977Z,97755.59
2023-03-11T09:26:05.510Z,97757.38
2023-03-11T09:27:06.793Z,97759.19
2023-03-11T09:28:08.102Z,97763.59
2023-03-11T09:29:09.349Z,97756.97
2023-03-11T09:30:11.286Z,97760.38
2023-03-11T09:31:13.022Z,97761.94
2023-03-11T09:32:14.919Z,97764.56
2023-03-11T09:33:16.280Z,97759.16
2023-03-11T09:34:17.604Z,97759.88
2023-03-11T09:35:18.949Z,97760.34
2023-03-11T09:36:20.735Z,97762.66
2023-03-11T09:37:21.966Z,97758.13
2023-03-11T09:38:23.236Z,97763.03
2023-03-11T09:39:24.519Z,97765.41
2023-03-11T09:40:27.974Z,97763.00
2023-03-11T09:41:36.643Z,97767.16
2023-03-11T09:42:51.623Z,97759.25
2023-03-11T09:44:01.690Z,97764.88
2023-03-11T09:45:02.912Z,97756.44
2023-03-11T09:46:19.668Z,97758.47
2023-03-11T09:47:34.569Z,97758.31
2023-03-11T09:48:40.041Z,97763.03
2023-03-11T09:49:50.525Z,97756.28
2023-03-11T09:50:55.348Z,97765.28
2023-03-11T09:52:04.657Z,97765.03
2023-03-11T09:53:05.881Z,97765.00
2023-03-11T09:54:11.208Z,97768.63
2023-03-11T09:55:21.856Z,97760.81
2023-03-11T09:56:23.225Z,97762.91
2023-03-11T09:57:27.973Z,97761.59
2023-03-11T09:58:43.921Z,97765.31
2023-03-11T09:59:45.450Z,97769.50
2023-03-11T10:00:47.015Z,97770.81
2023-03-11T10:01:49.682Z,97761.44
2023-03-11T10:02:51.257Z,97764.59
2023-03-11T10:03:54.683Z,97764.69
2023-03-11T10:05:13.101Z,97760.84
2023-03-11T10:06:15.883Z,97761.13
2023-03-11T10:07:19.681Z,97762.16
2023-03-11T10:08:41.224Z,97758.25
2023-03-11T10:09:53.102Z,97762.75
2023-03-11T10:11:01.101Z,97760.66
2023-03-11T10:12:40.682Z,97758.25
2023-03-11T10:13:52.037Z,97754.63
2023-03-11T10:14:56.181Z,97767.16
2023-03-11T10:16:02.976Z,97768.72
2023-03-11T10:17:14.365Z,97753.66
2023-03-11T10:18:27.332Z,97754.91
2023-03-11T10:19:31.434Z,97765.84
2023-03-11T10:20:42.180Z,97759.78
2023-03-11T10:21:50.424Z,97761.03
2023-03-11T10:23:10.485Z,97757.06
2023-03-11T10:24:11.706Z,97758.28
2023-03-11T10:25:14.972Z,97764.09
2023-03-11T10:26:25.519Z,97757.28
2023-03-11T10:27:31.230Z,97761.50
2023-03-11T10:28:35.518Z,97759.34
2023-03-11T10:29:44.834Z,97764.47
2023-03-11T10:31:04.550Z,97759.44
2023-03-11T10:32:15.181Z,97755.81
2023-03-11T10:33:22.401Z,97757.28
2023-03-11T10:34:32.688Z,97755.09
2023-03-11T10:35:38.449Z,97762.72
2023-03-11T10:36:45.576Z,97757.28
2023-03-11T10:37:53.134Z,97750.34
2023-03-11T10:38:55.800Z,97762.91
2023-03-11T10:40:02.271Z,97756.81
2023-03-11T10:41:06.882Z,97763.38
2023-03-11T10:42:13.137Z,97771.25
2023-03-11T10:43:17.383Z,97759.91
2023-03-11T10:44:38.878Z,97761.88
2023-03-11T10:45:44.258Z,97757.81
2023-03-11T10:46:45.493Z,97755.53
2023-03-11T10:47:46.823Z,97751.09
2023-03-11T10:48:48.101Z,97751.34
2023-03-11T10:49:49.732Z,97751.00
2023-03-11T10:50:56.938Z,97752.84
2023-03-11T10:51:58.418Z,97755.13
2023-03-11T10:53:10.144Z,97753.66
2023-03-11T10:54:21.486Z,97756.34
2023-03-11T10:55:22.745Z,97757.72
2023-03-11T10:56:33.265Z,97759.19
2023-03-11T10:57:35.934Z,97756.00
2023-03-11T10:58:38.412Z,97754.22
2023-03-11T10:59:42.978Z,97760.75
2023-03-11T11:00:44.322Z,97754.41
2023-03-11T11:01:53.561Z,97754.63
2023-03-11T11:02:54.953Z,97754.84
2023-03-11T11:03:57.190Z,97765.84
2023-03-11T11:05:04.497Z,97769.22
2023-03-11T11:06:07.099Z,97769.00
2023-03-11T11:07:22.187Z,97765.50
2023-03-11T11:08:23.517Z,97771.91
2023-03-11T11:09:26.832Z,97772.19
2023-03-11T11:10:28.910Z,97770.25
2023-03-11T11:11:30.405Z,97773.66
2023-03-11T11:12:31.627Z,97770.31
2023-03-11T11:13:33.992Z,97779.81
2023-03-11T11:14:53.384Z,97776.81
2023-03-11T11:15:56.790Z,97781.13
2023-03-11T11:16:58.199Z,97782.69
2023-03-11T11:18:04.367Z,97783.84
2023-03-11T11:19:05.780Z,97780.28
2023-03-11T11:20:23.790Z,97771.09
2023-03-11T11:21:28.168Z,97779.66
2023-03-11T11:22:29.533Z,97777.03
2023-03-11T11:23:32.558Z,97781.84
2023-03-11T11:24:33.884Z,97777.34
2023-03-11T11:25:36.789Z,97783.63
2023-03-11T11:26:38.081Z,97782.19
2023-03-11T11:27:52.951Z,97781.25
2023-03-11T11:29:12.845Z,97773.16
2023-03-11T11:30:16.489Z,97774.63
2023-03-11T11:31:23.225Z,97776.41
2023-03-11T11:32:25.826Z,97773.00
2023-03-11T11:33:32.258Z,97773.97
2023-03-11T11:34:34.407Z,97769.50
2023-03-11T11:35:48.220Z,97765.72
2023-03-11T11:36:49.919Z,97776.44
2023-03-11T11:37:52.856Z,97777.91
2023-03-11T11:38:54.704Z,97778.63
2023-03-11T11:39:59.522Z,97771.69
2023-03-11T11:41:04.267Z,97769.28
2023-03-11T11:42:06.393Z,97775.31
2023-03-11T11:43:14.538Z,97773.22
2023-03-11T11:44:17.737Z,97773.47
2023-03-11T11:45:39.310Z,97781.78
2023-03-11T11:46:42.563Z,97769.19
2023-03-11T11:47:46.893Z,97762.97
2023-03-11T11:48:54.673Z,97771.94
2023-03-11T11:49:57.598Z,97770.75
2023-03-11T11:51:00.486Z,97769.50
2023-03-11T11:52:22.518Z,97775.16
2023-03-11T11:53:26.911Z,97765.22
2023-03-11T11:54:35.622Z,97761.72
2023-03-11T11:55:39.933Z,97757.78
2023-03-11T11:56:41.131Z,97767.81
2023-03-11T11:57:42.414Z,97765.28
2023-03-11T11:58:43.790Z,97760.22
2023-03-11T11:59:45.124Z,97757.00
2023-03-11T12:00:46.596Z,97758.25
2023-03-11T12:02:10.903Z,97759.34
2023-03-11T12:03:24.397Z,97751.94
2023-03-11T12:04:44.180Z,97752.41
2023-03-11T12:05:52.014Z,97754.84
2023-03-11T12:07:01.090Z,97755.72
2023-03-11T12:08:05.467Z,97757.91
2023-03-11T12:09:25.486Z,97748.91
2023-03-11T12:10:37.016Z,97750.88
2023-03-11T12:11:42.031Z,97745.81
2023-03-11T12:13:03.684Z,97742.78
2023-03-11T12:14:21.743Z,97741.81
2023-03-11T12:15:29.225Z,97733.81
2023-03-11T12:16:49.086Z,97739.75
2023-03-11T12:17:52.344Z,97732.16
2023-03-11T12:18:56.281Z,97739.97
2023-03-11T12:20:20.237Z,97737.22
2023-03-11T12:21:50.961Z,97743.66
2023-03-11T12:23:11.423Z,97739.94
2023-03-11T12:24:28.035Z,97732.53